createdAt,value
2017-05-15T00:01:30.963Z,2.36
2017-05-15T00:03:57.945Z,2.44
2017-05-15T00:06:24.966Z,2.70
2017-05-15T00:08:51.929Z,2.78
2017-05-15T00:11:18.935Z,2.84
2017-05-15T00:13:46.629Z,3.26
2017-05-15T00:16:13.601Z,3.06
2017-05-15T00:18:40.580Z,2.58
2017-05-15T00:21:07.538Z,2.86
2017-05-15T00:23:35.287Z,3.06
2017-05-15T00:26:02.258Z,3.02
2017-05-15T00:28:30.076Z,2.60
2017-05-15T00:30:57.033Z,2.82
2017-05-15T00:33:24.029Z,3.10
2017-05-15T00:35:51.007Z,2.70
2017-05-15T00:38:17.989Z,3.04
2017-05-15T00:40:45.704Z,2.58
2017-05-15T00:43:12.700Z,2.70
2017-05-15T00:45:40.410Z,2.54
2017-05-15T00:48:07.402Z,2.80
2017-05-15T00:50:34.358Z,2.88
2017-05-15T00:55:36.513Z,2.98
2017-05-15T00:58:03.482Z,2.80
2017-05-15T01:00:30.471Z,2.72
2017-05-15T01:02:57.441Z,2.76
2017-05-15T01:05:24.446Z,2.98
2017-05-15T01:07:51.424Z,2.62
2017-05-15T01:10:18.429Z,2.92
2017-05-15T01:12:46.134Z,2.58
2017-05-15T01:15:13.146Z,3.30
2017-05-15T01:17:40.854Z,3.04
2017-05-15T01:20:07.827Z,3.22
2017-05-15T01:22:34.802Z,3.60
2017-05-15T01:25:01.764Z,2.66
2017-05-15T01:27:28.757Z,2.70
2017-05-15T01:29:55.738Z,2.66
2017-05-15T01:32:22.733Z,2.98
2017-05-15T01:34:49.714Z,2.70
2017-05-15T01:37:16.723Z,2.54
2017-05-15T01:39:43.693Z,2.60
2017-05-15T01:42:10.719Z,2.60
2017-05-15T01:44:37.725Z,3.00
2017-05-15T01:47:05.502Z,2.86
2017-05-15T01:49:32.511Z,2.70
2017-05-15T01:51:59.518Z,2.26
2017-05-15T01:54:26.539Z,2.92
2017-05-15T01:56:53.537Z,2.90
2017-05-15T01:59:20.558Z,2.72
2017-05-15T02:01:47.557Z,2.58
2017-05-15T02:04:14.603Z,2.74
2017-05-15T02:06:42.353Z,2.38
2017-05-15T02:09:09.380Z,2.42
2017-05-15T02:11:36.396Z,2.60
2017-05-15T02:14:03.438Z,2.70
2017-05-15T02:16:30.446Z,2.60
2017-05-15T02:18:57.476Z,2.52
2017-05-15T02:21:24.477Z,3.16
2017-05-15T02:23:51.472Z,1.96
2017-05-15T02:26:19.225Z,2.32
2017-05-15T02:28:46.237Z,2.86
2017-05-15T02:31:13.255Z,2.66
2017-05-15T02:33:40.264Z,2.90
2017-05-15T02:36:07.282Z,2.36
2017-05-15T02:38:34.289Z,2.88
2017-05-15T02:41:01.336Z,2.44
2017-05-15T02:43:28.342Z,3.14
2017-05-15T02:45:55.353Z,2.12
2017-05-15T02:48:22.383Z,2.20
2017-05-15T02:50:49.377Z,3.18
2017-05-15T02:53:16.391Z,2.30
2017-05-15T02:55:43.376Z,2.16
2017-05-15T02:58:10.402Z,2.64
2017-05-15T03:00:37.425Z,2.98
2017-05-15T03:03:04.457Z,2.78
2017-05-15T03:05:31.483Z,2.68
2017-05-15T03:07:59.251Z,2.82
2017-05-15T03:10:26.990Z,2.42
2017-05-15T03:12:54.005Z,2.40
2017-05-15T03:15:21.023Z,2.50
2017-05-15T03:17:48.013Z,2.68
2017-05-15T03:20:15.187Z,2.62
2017-05-15T03:22:42.227Z,2.62
2017-05-15T03:25:09.259Z,2.78
2017-05-15T03:27:36.231Z,2.82
2017-05-15T03:30:03.286Z,3.08
2017-05-15T03:32:31.035Z,2.96
2017-05-15T03:34:58.049Z,2.84
2017-05-15T03:37:25.086Z,3.20
2017-05-15T03:39:52.080Z,2.82
2017-05-15T03:42:19.109Z,2.98
2017-05-15T03:44:46.114Z,3.20
2017-05-15T03:47:13.140Z,3.58
2017-05-15T03:49:40.874Z,3.22
2017-05-15T03:52:07.897Z,2.80
2017-05-15T03:54:34.962Z,2.50
2017-05-15T03:57:01.970Z,2.86
2017-05-15T03:59:28.977Z,3.00
2017-05-15T04:01:56.530Z,2.90
2017-05-15T04:04:23.550Z,2.98
2017-05-15T04:06:50.894Z,2.62
2017-05-15T04:09:17.886Z,2.72
2017-05-15T04:11:44.869Z,3.30
2017-05-15T04:14:11.903Z,3.18
2017-05-15T04:16:39.613Z,2.74
2017-05-15T04:19:06.637Z,2.50
2017-05-15T04:21:33.638Z,2.88
2017-05-15T04:24:00.937Z,3.02
2017-05-15T04:26:27.938Z,2.86
2017-05-15T04:28:54.986Z,3.54
2017-05-15T04:31:22.704Z,3.58
2017-05-15T04:33:50.462Z,3.26
2017-05-15T04:36:17.449Z,3.30
2017-05-15T04:38:44.478Z,3.24
2017-05-15T04:41:11.482Z,3.56
2017-05-15T04:43:38.516Z,3.20
2017-05-15T04:46:05.626Z,3.06
2017-05-15T04:48:32.679Z,3.56
2017-05-15T04:50:59.660Z,3.26
2017-05-15T04:53:26.654Z,3.24
2017-05-15T04:55:54.397Z,2.90
2017-05-15T04:58:21.387Z,3.40
2017-05-15T05:00:48.404Z,3.10
2017-05-15T05:03:16.161Z,3.40
2017-05-15T05:05:43.198Z,3.60
2017-05-15T05:08:10.595Z,2.80
2017-05-15T05:10:37.627Z,2.58
2017-05-15T05:13:04.615Z,2.42
2017-05-15T05:15:31.655Z,3.38
2017-05-15T05:17:58.629Z,3.52
2017-05-15T05:20:29.498Z,3.50
2017-05-15T05:23:00.553Z,3.44
2017-05-15T05:25:36.583Z,3.26
2017-05-15T05:28:15.481Z,3.30
2017-05-15T05:30:48.390Z,3.56
2017-05-15T05:33:25.349Z,3.44
2017-05-15T05:35:59.421Z,3.98
2017-05-15T05:38:35.610Z,4.24
2017-05-15T05:41:02.626Z,3.90
2017-05-15T05:43:35.703Z,4.06
2017-05-15T05:46:02.709Z,4.00
2017-05-15T05:48:29.740Z,4.32
2017-05-15T05:50:56.742Z,3.24
2017-05-15T05:53:23.764Z,3.30
2017-05-15T05:56:03.040Z,3.10
2017-05-15T05:58:30.810Z,3.18
2017-05-15T06:01:10.149Z,3.30
2017-05-15T06:03:49.509Z,3.10
2017-05-15T06:06:28.758Z,3.00
2017-05-15T06:09:07.955Z,2.94
2017-05-15T06:11:47.266Z,3.20
2017-05-15T06:14:26.574Z,3.62
2017-05-15T06:17:13.217Z,3.50
2017-05-15T06:19:40.746Z,3.54
2017-05-15T06:22:19.931Z,2.72
2017-05-15T06:25:08.199Z,3.92
2017-05-15T06:27:35.129Z,2.50
2017-05-15T06:30:02.042Z,2.74
2017-05-15T06:32:29.675Z,2.42
2017-05-15T06:34:56.587Z,2.72
2017-05-15T06:37:23.604Z,3.04
2017-05-15T06:40:17.449Z,3.00
2017-05-15T06:42:44.453Z,2.52
2017-05-15T06:45:11.891Z,2.80
2017-05-15T06:47:39.521Z,2.94
2017-05-15T06:50:06.429Z,2.62
2017-05-15T06:52:33.319Z,2.88
2017-05-15T06:55:00.206Z,2.76
2017-05-15T06:57:27.114Z,2.58
2017-05-15T06:59:54.003Z,2.92
2017-05-15T07:02:20.905Z,2.44
2017-05-15T07:04:47.830Z,2.28
2017-05-15T07:07:14.618Z,2.48
2017-05-15T07:09:42.331Z,2.12
2017-05-15T07:12:10.061Z,2.24
2017-05-15T07:14:37.021Z,2.28
2017-05-15T07:17:04.010Z,2.48
2017-05-15T07:19:30.985Z,2.38
2017-05-15T07:21:57.969Z,2.12
2017-05-15T07:24:25.666Z,3.94
2017-05-15T07:26:52.647Z,2.64
2017-05-15T07:29:19.642Z,2.76
2017-05-15T07:31:46.604Z,2.30
2017-05-15T07:34:13.585Z,2.84
2017-05-15T07:36:40.549Z,2.44
2017-05-15T07:39:08.450Z,2.12
2017-05-15T07:41:35.409Z,2.48
2017-05-15T07:44:02.399Z,2.00
2017-05-15T07:46:29.364Z,2.02
2017-05-15T07:48:57.111Z,1.84
2017-05-15T07:51:24.070Z,2.84
2017-05-15T07:53:51.814Z,1.90
2017-05-15T07:56:18.783Z,2.22
2017-05-15T07:58:45.754Z,2.98
2017-05-15T08:01:12.749Z,2.76
2017-05-15T08:03:39.755Z,2.26
2017-05-15T08:06:07.502Z,2.36
2017-05-15T08:08:34.497Z,2.20
2017-05-15T08:11:01.501Z,1.84
2017-05-15T08:13:28.460Z,1.60
2017-05-15T08:15:56.183Z,1.90
2017-05-15T08:18:23.149Z,2.12
2017-05-15T08:20:50.139Z,1.50
2017-05-15T08:23:17.111Z,1.74
2017-05-15T08:25:44.111Z,1.34
2017-05-15T08:28:11.072Z,1.84
2017-05-15T08:30:38.034Z,1.76
2017-05-15T08:33:05.764Z,1.76
2017-05-15T08:35:32.717Z,2.14
2017-05-15T08:37:59.705Z,2.00
2017-05-15T08:40:27.400Z,2.38
2017-05-15T08:42:54.390Z,2.36
2017-05-15T08:45:21.371Z,2.30
2017-05-15T08:47:48.366Z,2.62
2017-05-15T08:50:15.334Z,3.80
2017-05-15T08:52:43.064Z,1.94
2017-05-15T08:55:10.038Z,1.82
2017-05-15T08:57:37.030Z,1.78
2017-05-15T09:00:04.000Z,2.54
2017-05-15T09:02:31.006Z,3.36
2017-05-15T09:04:58.303Z,2.00
2017-05-15T09:07:25.270Z,2.20
2017-05-15T09:09:52.262Z,2.04
2017-05-15T09:12:19.230Z,1.98
2017-05-15T09:14:46.219Z,4.16
2017-05-15T09:17:13.933Z,2.04
2017-05-15T09:19:40.930Z,2.16
2017-05-15T09:22:08.638Z,2.10
2017-05-15T09:24:35.629Z,2.74
2017-05-15T09:27:02.586Z,2.10
2017-05-15T09:29:29.579Z,2.00
2017-05-15T09:31:57.285Z,1.92
2017-05-15T09:34:24.265Z,1.86
2017-05-15T09:36:51.257Z,2.24
2017-05-15T09:39:18.218Z,2.98
2017-05-15T09:41:45.204Z,1.78
2017-05-15T09:44:12.175Z,2.22
2017-05-15T09:46:39.907Z,2.30
2017-05-15T09:49:06.866Z,2.22
2017-05-15T09:51:33.868Z,2.24
2017-05-15T09:54:00.843Z,2.30
2017-05-15T09:56:27.805Z,2.46
2017-05-15T09:58:54.790Z,1.82
2017-05-15T10:01:22.497Z,1.96
2017-05-15T10:03:49.509Z,2.58
2017-05-15T10:06:16.479Z,2.46
2017-05-15T10:08:43.466Z,1.90
2017-05-15T10:11:10.434Z,2.16
2017-05-15T10:13:38.158Z,1.96
2017-05-15T10:16:05.123Z,2.28
2017-05-15T10:18:32.108Z,1.82
2017-05-15T10:20:59.091Z,2.32
2017-05-15T10:23:26.094Z,2.22
2017-05-15T10:25:53.058Z,2.40
2017-05-15T10:28:20.042Z,1.78
2017-05-15T10:30:47.751Z,1.92
2017-05-15T10:33:14.747Z,2.58
2017-05-15T10:35:42.451Z,1.84
2017-05-15T10:38:09.430Z,1.94
2017-05-15T10:40:36.416Z,2.36
2017-05-15T10:43:04.139Z,2.14
2017-05-15T10:45:31.123Z,2.04
2017-05-15T10:47:58.109Z,1.90
2017-05-15T10:50:25.093Z,2.02
2017-05-15T10:52:52.805Z,2.16
2017-05-15T10:55:19.797Z,2.32
2017-05-15T10:57:46.762Z,2.00
2017-05-15T11:00:14.485Z,2.10
2017-05-15T11:02:41.453Z,2.38
2017-05-15T11:05:08.466Z,2.34
2017-05-15T11:07:35.430Z,2.42
2017-05-15T11:10:02.398Z,1.82
2017-05-15T11:12:29.382Z,2.28
2017-05-15T11:14:57.086Z,3.06
2017-05-15T11:17:24.069Z,2.24
2017-05-15T11:19:51.030Z,2.56
2017-05-15T11:22:18.759Z,2.46
2017-05-15T11:24:45.723Z,2.08
2017-05-15T11:27:12.716Z,2.14
2017-05-15T11:29:39.686Z,2.04
2017-05-15T11:32:06.674Z,2.52
2017-05-15T11:34:34.382Z,2.38
2017-05-15T11:37:01.349Z,2.12
2017-05-15T11:39:28.332Z,2.50
2017-05-15T11:41:56.041Z,2.22
2017-05-15T11:44:23.026Z,2.48
2017-05-15T11:46:50.735Z,2.66
2017-05-15T11:49:17.721Z,3.76
2017-05-15T11:51:44.691Z,3.52
2017-05-15T11:54:11.681Z,1.98
2017-05-15T11:56:38.669Z,1.98
2017-05-15T11:59:05.647Z,2.42
2017-05-15T12:01:32.631Z,2.34
2017-05-15T12:03:59.623Z,2.78
2017-05-15T12:06:26.605Z,2.34
2017-05-15T12:08:54.346Z,2.40
2017-05-15T12:11:21.342Z,2.58
2017-05-15T12:13:48.305Z,2.78
2017-05-15T12:16:15.274Z,2.80
2017-05-15T12:18:42.263Z,2.82
2017-05-15T12:21:09.256Z,2.72
2017-05-15T12:23:36.246Z,2.00
2017-05-15T12:26:03.206Z,1.94
2017-05-15T12:28:30.198Z,1.86
2017-05-15T12:30:57.894Z,2.80
2017-05-15T12:33:24.881Z,2.10
2017-05-15T12:35:51.833Z,1.90
2017-05-15T12:38:18.815Z,1.96
2017-05-15T12:40:46.525Z,2.52
2017-05-15T12:43:13.526Z,2.42
2017-05-15T12:45:41.235Z,2.44
2017-05-15T12:48:08.945Z,2.00
2017-05-15T12:50:35.933Z,2.02
2017-05-15T12:53:02.890Z,2.50
2017-05-15T12:55:30.618Z,2.52
2017-05-15T12:57:57.581Z,2.54
2017-05-15T13:00:25.303Z,2.50
2017-05-15T13:02:52.270Z,2.32
2017-05-15T13:05:19.273Z,2.12
2017-05-15T13:07:46.233Z,2.20
2017-05-15T13:10:13.226Z,2.38
2017-05-15T13:12:40.932Z,1.58
2017-05-15T13:15:07.975Z,1.90
2017-05-15T13:17:34.942Z,2.06
2017-05-15T13:20:01.905Z,2.32
2017-05-15T13:22:28.908Z,2.22
2017-05-15T13:24:56.226Z,2.26
2017-05-15T13:27:23.225Z,2.48
2017-05-15T13:29:50.191Z,4.06
2017-05-15T13:32:17.922Z,2.54
2017-05-15T13:34:44.885Z,2.06
2017-05-15T13:37:11.891Z,2.20
2017-05-15T13:39:38.849Z,2.70
2017-05-15T13:42:05.829Z,2.86
2017-05-15T13:44:32.793Z,1.88
2017-05-15T13:47:00.494Z,2.40
2017-05-15T13:49:27.469Z,3.80
2017-05-15T13:51:54.447Z,2.30
2017-05-15T13:54:22.170Z,3.16
2017-05-15T13:56:49.137Z,2.98
2017-05-15T13:59:16.128Z,2.74
2017-05-15T14:01:43.092Z,2.84
2017-05-15T14:04:10.110Z,2.84
2017-05-15T14:06:37.828Z,2.80
2017-05-15T14:09:04.844Z,2.48
2017-05-15T14:11:31.812Z,2.12
2017-05-15T14:13:58.810Z,2.16
2017-05-15T14:16:26.514Z,2.54
2017-05-15T14:18:53.477Z,1.78
2017-05-15T14:21:20.466Z,1.80
2017-05-15T14:23:48.175Z,1.90
2017-05-15T14:26:15.162Z,1.60
2017-05-15T14:28:42.866Z,1.52
2017-05-15T14:31:09.841Z,1.92
2017-05-15T14:33:36.807Z,2.60
2017-05-15T14:36:03.807Z,3.08
2017-05-15T14:38:30.773Z,1.90
2017-05-15T14:40:57.754Z,2.20
2017-05-15T14:43:25.453Z,2.10
2017-05-15T14:45:52.451Z,1.96
2017-05-15T14:48:19.418Z,2.08
2017-05-15T14:50:46.378Z,1.72
2017-05-15T14:53:13.360Z,1.78
2017-05-15T14:55:40.316Z,2.08
2017-05-15T14:58:08.047Z,3.18
2017-05-15T15:00:35.007Z,2.84
2017-05-15T15:03:01.993Z,3.68
2017-05-15T15:05:28.979Z,3.62
2017-05-15T15:07:55.993Z,3.72
2017-05-15T15:10:22.967Z,3.50
2017-05-15T15:12:49.974Z,2.44
2017-05-15T15:15:16.936Z,1.86
2017-05-15T15:17:43.938Z,2.28
2017-05-15T15:20:10.907Z,2.72
2017-05-15T15:22:37.903Z,2.70
2017-05-15T15:25:04.870Z,2.26
2017-05-15T15:27:32.594Z,3.00
2017-05-15T15:29:59.562Z,3.16
2017-05-15T15:32:27.272Z,2.34
2017-05-15T15:34:54.266Z,2.92
2017-05-15T15:37:21.968Z,2.04
2017-05-15T15:39:48.955Z,2.08
2017-05-15T15:42:15.919Z,2.22
2017-05-15T15:44:43.646Z,1.80
2017-05-15T15:47:10.607Z,2.28
2017-05-15T15:49:37.596Z,2.06
2017-05-15T15:52:04.562Z,1.86
2017-05-15T15:54:31.550Z,2.02
2017-05-15T15:56:58.515Z,1.70
2017-05-15T15:59:26.246Z,2.00
2017-05-15T16:01:53.239Z,2.22
2017-05-15T16:04:20.229Z,2.30
2017-05-15T16:06:47.221Z,2.00
2017-05-15T16:09:14.943Z,2.14
2017-05-15T16:11:41.958Z,2.22
2017-05-15T16:14:08.928Z,2.50
2017-05-15T16:16:35.934Z,2.12
2017-05-15T16:19:02.898Z,2.28
2017-05-15T16:21:29.902Z,2.40
2017-05-15T16:23:57.613Z,3.20
2017-05-15T16:26:24.623Z,3.72
2017-05-15T16:28:52.346Z,4.78
2017-05-15T16:31:19.312Z,3.42
2017-05-15T16:33:53.349Z,5.50
2017-05-15T16:36:21.049Z,5.90
2017-05-15T16:38:48.039Z,3.04
2017-05-15T16:41:15.006Z,2.42
2017-05-15T16:43:41.993Z,2.80
2017-05-15T16:46:08.979Z,2.78
2017-05-15T16:48:35.966Z,2.32
2017-05-15T16:51:02.943Z,2.42
2017-05-15T16:53:30.665Z,2.86
2017-05-15T16:55:57.634Z,2.58
2017-05-15T16:58:24.615Z,2.52
2017-05-15T17:00:51.599Z,2.62
2017-05-15T17:03:18.597Z,1.90
2017-05-15T17:05:45.592Z,2.60
2017-05-15T17:08:12.601Z,2.38
2017-05-15T17:10:40.323Z,2.60
2017-05-15T17:13:07.297Z,2.72
2017-05-15T17:15:35.031Z,2.60
2017-05-15T17:18:01.998Z,1.94
2017-05-15T17:20:28.990Z,2.76
2017-05-15T17:22:55.961Z,2.38
2017-05-15T17:25:22.952Z,2.14
2017-05-15T17:27:49.923Z,2.62
2017-05-15T17:30:16.887Z,2.72
2017-05-15T17:32:43.908Z,3.52
2017-05-15T17:35:10.886Z,2.62
2017-05-15T17:37:38.618Z,2.14
2017-05-15T17:40:05.584Z,2.98
2017-05-15T17:42:32.633Z,3.20
2017-05-15T17:45:00.355Z,3.60
2017-05-15T17:47:27.493Z,3.30
2017-05-15T17:49:54.462Z,2.40
2017-05-15T17:52:21.464Z,2.50
2017-05-15T17:54:48.425Z,2.16
2017-05-15T17:57:15.426Z,2.48
2017-05-15T17:59:42.382Z,2.28
2017-05-15T18:02:09.369Z,2.40
2017-05-15T18:04:37.237Z,2.30
2017-05-15T18:07:04.202Z,2.68
2017-05-15T18:09:31.189Z,2.40
2017-05-15T18:11:58.152Z,2.28
2017-05-15T18:14:25.140Z,1.98
2017-05-15T18:16:52.155Z,1.76
2017-05-15T18:19:19.218Z,2.08
2017-05-15T18:21:46.199Z,1.86
2017-05-15T18:24:13.210Z,2.20
2017-05-15T18:26:40.183Z,2.14
2017-05-15T18:29:07.186Z,2.00
2017-05-15T18:31:34.150Z,2.20
2017-05-15T18:34:01.111Z,1.88
2017-05-15T18:36:28.833Z,2.44
2017-05-15T18:38:55.805Z,2.38
2017-05-15T18:41:22.794Z,2.40
2017-05-15T18:43:49.758Z,2.02
2017-05-15T18:46:16.762Z,2.58
2017-05-15T18:48:44.485Z,2.80
2017-05-15T18:51:11.471Z,2.70
2017-05-15T18:53:39.169Z,2.60
2017-05-15T18:56:06.165Z,2.00
2017-05-15T18:58:33.123Z,2.50
2017-05-15T19:01:00.114Z,2.14
2017-05-15T19:03:27.218Z,2.96
2017-05-15T19:05:54.190Z,2.58
2017-05-15T19:08:21.988Z,2.74
2017-05-15T19:10:48.952Z,2.34
2017-05-15T19:13:15.952Z,2.68
2017-05-15T19:15:42.918Z,2.30
2017-05-15T19:18:09.918Z,2.32
2017-05-15T19:20:36.880Z,2.38
2017-05-15T19:23:04.617Z,3.10
2017-05-15T19:25:31.581Z,2.72
2017-05-15T19:27:59.324Z,3.30
2017-05-15T19:30:26.281Z,3.32
2017-05-15T19:32:53.267Z,3.10
2017-05-15T19:35:20.449Z,3.92
2017-05-15T19:37:47.451Z,4.52
2017-05-15T19:40:14.439Z,4.74
2017-05-15T19:42:41.408Z,4.62
2017-05-15T19:45:08.823Z,4.42
2017-05-15T19:47:35.791Z,5.10
2017-05-15T19:50:02.792Z,5.40
2017-05-15T19:52:29.770Z,5.02
2017-05-15T19:54:56.932Z,4.00
2017-05-15T19:57:24.080Z,3.58
2017-05-15T19:59:51.104Z,3.36
2017-05-15T20:02:18.218Z,2.58
2017-05-15T20:04:45.224Z,3.04
2017-05-15T20:07:12.248Z,2.58
2017-05-15T20:09:39.266Z,2.92
2017-05-15T20:12:07.000Z,3.14
2017-05-15T20:14:33.994Z,2.90
2017-05-15T20:17:01.001Z,2.94
2017-05-15T20:19:27.975Z,4.62
2017-05-15T20:21:55.024Z,3.36
2017-05-15T20:24:22.027Z,2.34
2017-05-15T20:26:48.995Z,2.42
2017-05-15T20:29:16.721Z,2.78
2017-05-15T20:31:43.690Z,3.10
2017-05-15T20:34:10.683Z,3.30
2017-05-15T20:36:37.809Z,3.34
2017-05-15T20:39:06.035Z,3.42
2017-05-15T20:41:33.010Z,4.08
2017-05-15T20:44:00.010Z,3.82
2017-05-15T20:46:26.977Z,3.28
2017-05-15T20:48:54.715Z,3.32
2017-05-15T20:51:21.698Z,3.82
2017-05-15T20:53:49.410Z,3.60
2017-05-15T20:56:16.406Z,3.26
2017-05-15T20:58:44.119Z,3.22
2017-05-15T21:01:11.103Z,3.36
2017-05-15T21:03:38.230Z,3.10
2017-05-15T21:06:05.960Z,3.18
2017-05-15T21:08:32.936Z,3.24
2017-05-15T21:11:00.677Z,2.80
2017-05-15T21:13:27.648Z,3.46
2017-05-15T21:15:55.359Z,3.44
2017-05-15T21:18:22.342Z,3.02
2017-05-15T21:20:50.045Z,3.38
2017-05-15T21:23:17.031Z,3.32
2017-05-15T21:25:43.998Z,3.30
2017-05-15T21:28:11.718Z,3.64
2017-05-15T21:30:38.682Z,3.04
2017-05-15T21:33:05.670Z,3.00
2017-05-15T21:35:32.818Z,3.78
2017-05-15T21:37:59.808Z,3.46
2017-05-15T21:40:26.782Z,3.28
2017-05-15T21:42:54.521Z,3.36
2017-05-15T21:45:21.478Z,3.40
2017-05-15T21:47:48.605Z,3.60
2017-05-15T21:50:15.600Z,4.16
2017-05-15T21:52:43.314Z,3.68
2017-05-15T21:55:10.304Z,3.74
2017-05-15T21:57:38.016Z,4.06
2017-05-15T22:00:05.207Z,3.82
2017-05-15T22:02:32.917Z,3.42
2017-05-15T22:05:00.214Z,3.64
2017-05-15T22:07:27.933Z,3.74
2017-05-15T22:09:54.916Z,3.74
2017-05-15T22:12:22.622Z,3.70
2017-05-15T22:14:49.582Z,3.62
2017-05-15T22:17:16.567Z,3.72
2017-05-15T22:19:43.531Z,3.68
2017-05-15T22:22:11.271Z,4.06
2017-05-15T22:24:38.247Z,4.12
2017-05-15T22:27:05.426Z,3.56
2017-05-15T22:29:32.389Z,3.78
2017-05-15T22:31:59.380Z,3.84
2017-05-15T22:34:26.337Z,4.52
2017-05-15T22:36:53.330Z,4.02
2017-05-15T22:39:20.316Z,3.14
2017-05-15T22:41:47.285Z,3.22
2017-05-15T22:44:14.271Z,3.52
2017-05-15T22:46:41.978Z,3.38
2017-05-15T22:49:08.959Z,3.36
2017-05-15T22:51:35.962Z,2.92
2017-05-15T22:54:02.955Z,3.46
2017-05-15T22:56:29.925Z,3.60
2017-05-15T22:58:57.659Z,4.10
2017-05-15T23:01:24.640Z,3.78
2017-05-15T23:03:52.437Z,3.48
2017-05-15T23:06:19.393Z,3.60
2017-05-15T23:08:46.464Z,3.82
2017-05-15T23:11:13.432Z,4.34
2017-05-15T23:13:40.552Z,4.30
2017-05-15T23:16:07.535Z,4.10
2017-05-15T23:18:35.249Z,4.00
2017-05-15T23:21:02.243Z,4.20
2017-05-15T23:23:29.956Z,4.18
2017-05-15T23:25:56.949Z,4.98
2017-05-15T23:28:23.926Z,4.00
2017-05-15T23:30:50.901Z,4.48
2017-05-15T23:33:17.869Z,4.20
2017-05-15T23:35:45.613Z,4.46
2017-05-15T23:38:12.591Z,4.76
2017-05-15T23:40:39.632Z,4.10
2017-05-15T23:43:07.350Z,4.52
2017-05-15T23:45:34.316Z,4.12
2017-05-15T23:48:01.311Z,5.30
2017-05-15T23:50:28.418Z,5.34
2017-05-15T23:52:56.170Z,4.10
2017-05-15T23:55:23.142Z,4.62
2017-05-15T23:57:50.875Z,4.12
